sensor_id;sensor_type;location;lat;lon;timestamp;P1;durP1;ratioP1;P2;durP2;ratioP2
23228;SDS011;11783;50.350;6.576;2023-03-23T00:01:25;4.32;;;1.83;;
23228;SDS011;11783;50.350;6.576;2023-03-23T00:03:55;3.63;;;1.80;;
23228;SDS011;11783;50.350;6.576;2023-03-23T00:06:25;5.15;;;1.80;;
23228;SDS011;11783;50.350;6.576;2023-03-23T00:08:52;5.47;;;1.90;;
23228;SDS011;11783;50.350;6.576;2023-03-23T00:11:24;3.92;;;1.60;;
23228;SDS011;11783;50.350;6.576;2023-03-23T00:13:54;3.67;;;1.70;;
23228;SDS011;11783;50.350;6.576;2023-03-23T00:16:23;3.72;;;1.65;;
23228;SDS011;11783;50.350;6.576;2023-03-23T00:19:07;3.42;;;1.63;;
23228;SDS011;11783;50.350;6.576;2023-03-23T00:26:28;6.95;;;1.80;;
23228;SDS011;11783;50.350;6.576;2023-03-23T00:28:58;4.13;;;1.75;;
23228;SDS011;11783;50.350;6.576;2023-03-23T00:31:25;3.33;;;1.73;;
23228;SDS011;11783;50.350;6.576;2023-03-23T00:33:56;4.10;;;2.10;;
23228;SDS011;11783;50.350;6.576;2023-03-23T00:36:23;5.72;;;2.13;;
23228;SDS011;11783;50.350;6.576;2023-03-23T00:38:49;3.85;;;1.95;;
23228;SDS011;11783;50.350;6.576;2023-03-23T00:41:14;4.35;;;1.90;;
23228;SDS011;11783;50.350;6.576;2023-03-23T00:43:40;4.60;;;1.85;;
23228;SDS011;11783;50.350;6.576;2023-03-23T00:46:05;4.65;;;2.00;;
23228;SDS011;11783;50.350;6.576;2023-03-23T00:48:34;4.18;;;2.03;;
23228;SDS011;11783;50.350;6.576;2023-03-23T00:51:01;4.13;;;1.80;;
23228;SDS011;11783;50.350;6.576;2023-03-23T00:53:31;4.80;;;2.03;;
23228;SDS011;11783;50.350;6.576;2023-03-23T00:55:57;3.55;;;1.58;;
23228;SDS011;11783;50.350;6.576;2023-03-23T00:58:22;4.82;;;1.80;;
23228;SDS011;11783;50.350;6.576;2023-03-23T01:00:48;3.92;;;1.80;;
23228;SDS011;11783;50.350;6.576;2023-03-23T01:03:13;5.05;;;1.85;;
23228;SDS011;11783;50.350;6.576;2023-03-23T01:05:43;4.05;;;1.70;;
23228;SDS011;11783;50.350;6.576;2023-03-23T01:08:11;3.15;;;1.73;;
23228;SDS011;11783;50.350;6.576;2023-03-23T01:10:38;3.83;;;1.90;;
23228;SDS011;11783;50.350;6.576;2023-03-23T01:13:04;4.85;;;1.80;;
23228;SDS011;11783;50.350;6.576;2023-03-23T01:15:31;4.20;;;1.70;;
23228;SDS011;11783;50.350;6.576;2023-03-23T01:17:56;4.20;;;1.75;;
23228;SDS011;11783;50.350;6.576;2023-03-23T01:20:22;5.15;;;1.85;;
23228;SDS011;11783;50.350;6.576;2023-03-23T01:22:49;4.53;;;1.80;;
23228;SDS011;11783;50.350;6.576;2023-03-23T01:25:15;4.65;;;2.25;;
23228;SDS011;11783;50.350;6.576;2023-03-23T01:27:40;3.65;;;1.88;;
23228;SDS011;11783;50.350;6.576;2023-03-23T01:30:07;6.55;;;1.88;;
23228;SDS011;11783;50.350;6.576;2023-03-23T01:32:37;5.72;;;2.20;;
23228;SDS011;11783;50.350;6.576;2023-03-23T01:35:02;3.88;;;1.80;;
23228;SDS011;11783;50.350;6.576;2023-03-23T01:37:28;5.18;;;2.00;;
23228;SDS011;11783;50.350;6.576;2023-03-23T01:39:54;4.50;;;1.85;;
23228;SDS011;11783;50.350;6.576;2023-03-23T01:42:21;3.67;;;1.83;;
23228;SDS011;11783;50.350;6.576;2023-03-23T01:47:13;7.95;;;2.10;;
23228;SDS011;11783;50.350;6.576;2023-03-23T01:49:42;4.05;;;1.73;;
23228;SDS011;11783;50.350;6.576;2023-03-23T01:52:15;5.35;;;1.83;;
23228;SDS011;11783;50.350;6.576;2023-03-23T01:54:46;3.80;;;1.98;;
23228;SDS011;11783;50.350;6.576;2023-03-23T01:57:17;4.20;;;2.00;;
23228;SDS011;11783;50.350;6.576;2023-03-23T01:59:46;4.07;;;2.03;;
23228;SDS011;11783;50.350;6.576;2023-03-23T02:02:16;6.78;;;1.88;;
23228;SDS011;11783;50.350;6.576;2023-03-23T02:04:42;4.28;;;1.85;;
23228;SDS011;11783;50.350;6.576;2023-03-23T02:07:08;4.65;;;2.40;;
23228;SDS011;11783;50.350;6.576;2023-03-23T02:09:34;4.63;;;1.92;;
23228;SDS011;11783;50.350;6.576;2023-03-23T02:12:00;4.45;;;2.13;;
23228;SDS011;11783;50.350;6.576;2023-03-23T02:14:26;4.00;;;2.00;;
23228;SDS011;11783;50.350;6.576;2023-03-23T02:17:02;5.05;;;2.30;;
23228;SDS011;11783;50.350;6.576;2023-03-23T02:25:18;5.70;;;2.25;;
23228;SDS011;11783;50.350;6.576;2023-03-23T02:36:20;4.63;;;2.55;;
23228;SDS011;11783;50.350;6.576;2023-03-23T02:38:58;5.28;;;2.58;;
23228;SDS011;11783;50.350;6.576;2023-03-23T02:41:31;5.18;;;2.40;;
23228;SDS011;11783;50.350;6.576;2023-03-23T02:44:03;3.78;;;2.33;;
23228;SDS011;11783;50.350;6.576;2023-03-23T02:46:30;4.28;;;2.40;;
23228;SDS011;11783;50.350;6.576;2023-03-23T02:48:57;6.10;;;2.30;;
23228;SDS011;11783;50.350;6.576;2023-03-23T02:51:25;4.75;;;2.40;;
23228;SDS011;11783;50.350;6.576;2023-03-23T02:53:52;3.92;;;2.10;;
23228;SDS011;11783;50.350;6.576;2023-03-23T02:56:19;5.10;;;2.53;;
23228;SDS011;11783;50.350;6.576;2023-03-23T02:58:50;3.83;;;1.95;;
23228;SDS011;11783;50.350;6.576;2023-03-23T03:01:45;4.53;;;2.40;;
23228;SDS011;11783;50.350;6.576;2023-03-23T03:04:03;4.20;;;2.25;;
23228;SDS011;11783;50.350;6.576;2023-03-23T03:09:14;4.80;;;2.35;;
23228;SDS011;11783;50.350;6.576;2023-03-23T03:12:04;5.20;;;3.10;;
23228;SDS011;11783;50.350;6.576;2023-03-23T03:14:44;4.78;;;2.53;;
23228;SDS011;11783;50.350;6.576;2023-03-23T03:19:52;4.68;;;2.72;;
23228;SDS011;11783;50.350;6.576;2023-03-23T03:22:31;6.75;;;2.75;;
23228;SDS011;11783;50.350;6.576;2023-03-23T03:24:58;6.22;;;2.30;;
23228;SDS011;11783;50.350;6.576;2023-03-23T03:27:25;5.43;;;2.90;;
23228;SDS011;11783;50.350;6.576;2023-03-23T03:29:53;4.63;;;2.70;;
23228;SDS011;11783;50.350;6.576;2023-03-23T03:32:24;5.55;;;3.13;;
23228;SDS011;11783;50.350;6.576;2023-03-23T03:34:56;6.40;;;2.80;;
23228;SDS011;11783;50.350;6.576;2023-03-23T03:37:24;6.93;;;2.88;;
23228;SDS011;11783;50.350;6.576;2023-03-23T03:39:50;5.43;;;3.17;;
23228;SDS011;11783;50.350;6.576;2023-03-23T03:42:16;5.53;;;3.05;;
23228;SDS011;11783;50.350;6.576;2023-03-23T03:44:41;5.60;;;3.08;;
23228;SDS011;11783;50.350;6.576;2023-03-23T03:47:06;5.55;;;3.10;;
23228;SDS011;11783;50.350;6.576;2023-03-23T03:49:32;7.25;;;2.90;;
23228;SDS011;11783;50.350;6.576;2023-03-23T03:51:57;5.20;;;2.97;;
23228;SDS011;11783;50.350;6.576;2023-03-23T03:54:23;5.18;;;3.13;;
23228;SDS011;11783;50.350;6.576;2023-03-23T03:56:48;5.90;;;3.30;;
23228;SDS011;11783;50.350;6.576;2023-03-23T03:59:16;5.85;;;2.97;;
23228;SDS011;11783;50.350;6.576;2023-03-23T04:01:42;6.07;;;3.42;;
23228;SDS011;11783;50.350;6.576;2023-03-23T04:04:07;6.25;;;3.03;;
23228;SDS011;11783;50.350;6.576;2023-03-23T04:06:33;7.00;;;3.38;;
23228;SDS011;11783;50.350;6.576;2023-03-23T04:09:03;5.72;;;3.17;;
23228;SDS011;11783;50.350;6.576;2023-03-23T04:11:31;5.00;;;2.80;;
23228;SDS011;11783;50.350;6.576;2023-03-23T04:13:57;5.95;;;3.08;;
23228;SDS011;11783;50.350;6.576;2023-03-23T04:16:23;4.45;;;2.70;;
23228;SDS011;11783;50.350;6.576;2023-03-23T04:18:48;4.90;;;2.70;;
23228;SDS011;11783;50.350;6.576;2023-03-23T04:21:14;4.47;;;2.72;;
23228;SDS011;11783;50.350;6.576;2023-03-23T04:23:41;5.90;;;2.95;;
23228;SDS011;11783;50.350;6.576;2023-03-23T04:26:06;4.80;;;2.50;;
23228;SDS011;11783;50.350;6.576;2023-03-23T04:28:32;4.97;;;2.55;;
23228;SDS011;11783;50.350;6.576;2023-03-23T04:30:58;5.85;;;2.95;;
23228;SDS011;11783;50.350;6.576;2023-03-23T04:33:25;4.80;;;2.80;;
23228;SDS011;11783;50.350;6.576;2023-03-23T04:35:52;5.95;;;2.80;;
23228;SDS011;11783;50.350;6.576;2023-03-23T04:38:18;4.68;;;2.58;;
23228;SDS011;11783;50.350;6.576;2023-03-23T04:40:45;5.07;;;2.70;;
23228;SDS011;11783;50.350;6.576;2023-03-23T04:43:12;4.25;;;2.47;;
23228;SDS011;11783;50.350;6.576;2023-03-23T04:45:39;3.65;;;2.13;;
23228;SDS011;11783;50.350;6.576;2023-03-23T04:48:06;8.05;;;2.60;;
23228;SDS011;11783;50.350;6.576;2023-03-23T04:50:32;4.63;;;2.08;;
23228;SDS011;11783;50.350;6.576;2023-03-23T04:52:59;5.22;;;2.63;;
23228;SDS011;11783;50.350;6.576;2023-03-23T04:55:33;3.55;;;1.52;;
23228;SDS011;11783;50.350;6.576;2023-03-23T04:58:06;5.45;;;2.13;;
23228;SDS011;11783;50.350;6.576;2023-03-23T05:00:32;5.45;;;2.20;;
23228;SDS011;11783;50.350;6.576;2023-03-23T05:02:59;5.50;;;2.20;;
23228;SDS011;11783;50.350;6.576;2023-03-23T05:05:26;5.07;;;1.88;;
23228;SDS011;11783;50.350;6.576;2023-03-23T05:07:54;3.97;;;1.83;;
23228;SDS011;11783;50.350;6.576;2023-03-23T05:10:20;3.92;;;1.77;;
23228;SDS011;11783;50.350;6.576;2023-03-23T05:12:45;5.43;;;2.20;;
23228;SDS011;11783;50.350;6.576;2023-03-23T05:15:11;6.80;;;2.22;;
23228;SDS011;11783;50.350;6.576;2023-03-23T05:17:37;3.80;;;1.92;;
23228;SDS011;11783;50.350;6.576;2023-03-23T05:20:04;4.28;;;2.00;;
23228;SDS011;11783;50.350;6.576;2023-03-23T05:22:35;3.97;;;2.08;;
23228;SDS011;11783;50.350;6.576;2023-03-23T05:25:01;4.57;;;2.22;;
23228;SDS011;11783;50.350;6.576;2023-03-23T05:27:27;6.85;;;2.25;;
23228;SDS011;11783;50.350;6.576;2023-03-23T05:29:55;5.53;;;2.55;;
23228;SDS011;11783;50.350;6.576;2023-03-23T05:32:23;4.13;;;2.15;;
23228;SDS011;11783;50.350;6.576;2023-03-23T05:34:57;7.35;;;2.97;;
23228;SDS011;11783;50.350;6.576;2023-03-23T05:37:24;6.43;;;2.03;;
23228;SDS011;11783;50.350;6.576;2023-03-23T05:39:51;6.93;;;2.30;;
23228;SDS011;11783;50.350;6.576;2023-03-23T05:42:20;4.45;;;2.00;;
23228;SDS011;11783;50.350;6.576;2023-03-23T05:44:49;5.93;;;2.20;;
23228;SDS011;11783;50.350;6.576;2023-03-23T05:47:14;5.20;;;2.30;;
23228;SDS011;11783;50.350;6.576;2023-03-23T05:49:40;4.82;;;1.95;;
23228;SDS011;11783;50.350;6.576;2023-03-23T05:52:06;5.85;;;2.22;;
23228;SDS011;11783;50.350;6.576;2023-03-23T05:54:32;7.03;;;2.38;;
23228;SDS011;11783;50.350;6.576;2023-03-23T05:56:59;5.68;;;1.98;;
23228;SDS011;11783;50.350;6.576;2023-03-23T05:59:24;7.60;;;2.60;;
23228;SDS011;11783;50.350;6.576;2023-03-23T06:01:50;4.53;;;1.83;;
23228;SDS011;11783;50.350;6.576;2023-03-23T06:04:16;3.83;;;2.10;;
23228;SDS011;11783;50.350;6.576;2023-03-23T06:06:42;4.68;;;2.10;;
23228;SDS011;11783;50.350;6.576;2023-03-23T06:09:08;6.97;;;2.42;;
23228;SDS011;11783;50.350;6.576;2023-03-23T06:11:34;6.10;;;2.10;;
23228;SDS011;11783;50.350;6.576;2023-03-23T06:14:00;5.05;;;2.28;;
23228;SDS011;11783;50.350;6.576;2023-03-23T06:16:26;4.82;;;1.85;;
23228;SDS011;11783;50.350;6.576;2023-03-23T06:18:51;8.05;;;2.13;;
23228;SDS011;11783;50.350;6.576;2023-03-23T06:21:16;6.78;;;2.28;;
23228;SDS011;11783;50.350;6.576;2023-03-23T06:23:46;6.15;;;2.03;;
23228;SDS011;11783;50.350;6.576;2023-03-23T06:26:13;8.20;;;2.35;;
23228;SDS011;11783;50.350;6.576;2023-03-23T06:28:41;4.28;;;2.13;;
23228;SDS011;11783;50.350;6.576;2023-03-23T06:31:06;6.75;;;2.13;;
23228;SDS011;11783;50.350;6.576;2023-03-23T06:33:33;5.95;;;1.88;;
23228;SDS011;11783;50.350;6.576;2023-03-23T06:35:59;6.85;;;1.92;;
23228;SDS011;11783;50.350;6.576;2023-03-23T06:38:25;5.65;;;2.30;;
23228;SDS011;11783;50.350;6.576;2023-03-23T06:40:52;7.55;;;2.25;;
23228;SDS011;11783;50.350;6.576;2023-03-23T06:43:18;3.58;;;1.70;;
23228;SDS011;11783;50.350;6.576;2023-03-23T06:45:43;4.97;;;1.90;;
23228;SDS011;11783;50.350;6.576;2023-03-23T06:48:08;4.38;;;2.00;;
23228;SDS011;11783;50.350;6.576;2023-03-23T06:50:34;5.38;;;2.25;;
23228;SDS011;11783;50.350;6.576;2023-03-23T06:52:59;3.28;;;1.50;;
23228;SDS011;11783;50.350;6.576;2023-03-23T06:55:25;7.05;;;2.22;;
23228;SDS011;11783;50.350;6.576;2023-03-23T06:57:50;3.47;;;1.60;;
23228;SDS011;11783;50.350;6.576;2023-03-23T07:00:15;8.25;;;1.90;;
23228;SDS011;11783;50.350;6.576;2023-03-23T07:02:41;3.22;;;1.60;;
23228;SDS011;11783;50.350;6.576;2023-03-23T07:05:08;5.65;;;1.77;;
23228;SDS011;11783;50.350;6.576;2023-03-23T07:07:35;3.65;;;1.50;;
23228;SDS011;11783;50.350;6.576;2023-03-23T07:10:02;3.53;;;1.60;;
23228;SDS011;11783;50.350;6.576;2023-03-23T07:12:28;3.85;;;1.70;;
23228;SDS011;11783;50.350;6.576;2023-03-23T07:14:54;3.45;;;1.73;;
23228;SDS011;11783;50.350;6.576;2023-03-23T07:17:20;4.28;;;1.88;;
23228;SDS011;11783;50.350;6.576;2023-03-23T07:19:45;4.70;;;1.60;;
23228;SDS011;11783;50.350;6.576;2023-03-23T07:22:11;4.60;;;1.80;;
23228;SDS011;11783;50.350;6.576;2023-03-23T07:24:36;4.07;;;1.50;;
23228;SDS011;11783;50.350;6.576;2023-03-23T07:27:02;4.10;;;1.40;;
23228;SDS011;11783;50.350;6.576;2023-03-23T07:29:28;3.90;;;1.48;;
23228;SDS011;11783;50.350;6.576;2023-03-23T07:31:53;4.25;;;1.88;;
23228;SDS011;11783;50.350;6.576;2023-03-23T07:34:19;3.25;;;1.38;;
23228;SDS011;11783;50.350;6.576;2023-03-23T07:36:45;7.10;;;1.50;;
23228;SDS011;11783;50.350;6.576;2023-03-23T07:39:10;6.13;;;1.55;;
23228;SDS011;11783;50.350;6.576;2023-03-23T07:41:37;3.80;;;1.20;;
23228;SDS011;11783;50.350;6.576;2023-03-23T07:44:02;5.80;;;1.63;;
23228;SDS011;11783;50.350;6.576;2023-03-23T07:46:28;6.03;;;1.85;;
23228;SDS011;11783;50.350;6.576;2023-03-23T07:48:53;5.70;;;1.60;;
23228;SDS011;11783;50.350;6.576;2023-03-23T07:51:19;5.15;;;1.73;;
23228;SDS011;11783;50.350;6.576;2023-03-23T07:53:44;4.00;;;1.73;;
23228;SDS011;11783;50.350;6.576;2023-03-23T07:56:10;5.30;;;1.50;;
23228;SDS011;11783;50.350;6.576;2023-03-23T07:58:37;6.18;;;1.65;;
23228;SDS011;11783;50.350;6.576;2023-03-23T08:01:03;3.30;;;1.52;;
23228;SDS011;11783;50.350;6.576;2023-03-23T08:03:28;5.82;;;1.85;;
23228;SDS011;11783;50.350;6.576;2023-03-23T08:05:57;3.60;;;1.45;;
23228;SDS011;11783;50.350;6.576;2023-03-23T08:08:23;3.85;;;1.60;;
23228;SDS011;11783;50.350;6.576;2023-03-23T08:10:49;7.78;;;1.70;;
23228;SDS011;11783;50.350;6.576;2023-03-23T08:13:15;4.03;;;1.42;;
23228;SDS011;11783;50.350;6.576;2023-03-23T08:15:41;4.60;;;1.83;;
23228;SDS011;11783;50.350;6.576;2023-03-23T08:18:08;4.57;;;1.55;;
23228;SDS011;11783;50.350;6.576;2023-03-23T08:20:34;4.43;;;1.30;;
23228;SDS011;11783;50.350;6.576;2023-03-23T08:23:00;3.75;;;1.48;;
23228;SDS011;11783;50.350;6.576;2023-03-23T08:25:27;4.75;;;1.60;;
23228;SDS011;11783;50.350;6.576;2023-03-23T08:27:56;3.05;;;1.40;;
23228;SDS011;11783;50.350;6.576;2023-03-23T08:30:22;4.30;;;1.23;;
23228;SDS011;11783;50.350;6.576;2023-03-23T08:32:48;3.03;;;1.27;;
23228;SDS011;11783;50.350;6.576;2023-03-23T08:35:14;4.70;;;1.70;;
23228;SDS011;11783;50.350;6.576;2023-03-23T08:37:41;6.13;;;1.20;;
23228;SDS011;11783;50.350;6.576;2023-03-23T08:40:07;4.18;;;1.20;;
23228;SDS011;11783;50.350;6.576;2023-03-23T08:42:37;3.80;;;1.17;;
23228;SDS011;11783;50.350;6.576;2023-03-23T08:45:05;3.28;;;1.15;;
23228;SDS011;11783;50.350;6.576;2023-03-23T08:47:32;2.20;;;1.30;;
23228;SDS011;11783;50.350;6.576;2023-03-23T08:49:58;3.50;;;1.25;;
23228;SDS011;11783;50.350;6.576;2023-03-23T08:52:24;4.22;;;1.20;;
23228;SDS011;11783;50.350;6.576;2023-03-23T08:54:49;5.40;;;1.40;;
23228;SDS011;11783;50.350;6.576;2023-03-23T08:57:15;4.45;;;1.27;;
23228;SDS011;11783;50.350;6.576;2023-03-23T08:59:41;3.15;;;1.10;;
23228;SDS011;11783;50.350;6.576;2023-03-23T09:02:10;2.88;;;1.30;;
23228;SDS011;11783;50.350;6.576;2023-03-23T09:04:39;3.75;;;1.40;;
23228;SDS011;11783;50.350;6.576;2023-03-23T09:07:07;4.18;;;1.23;;
23228;SDS011;11783;50.350;6.576;2023-03-23T09:09:34;7.80;;;1.40;;
23228;SDS011;11783;50.350;6.576;2023-03-23T09:12:00;4.68;;;1.40;;
23228;SDS011;11783;50.350;6.576;2023-03-23T09:14:26;3.30;;;1.20;;
23228;SDS011;11783;50.350;6.576;2023-03-23T09:16:52;2.88;;;1.40;;
23228;SDS011;11783;50.350;6.576;2023-03-23T09:19:17;4.50;;;1.52;;
23228;SDS011;11783;50.350;6.576;2023-03-23T09:21:43;6.22;;;1.55;;
23228;SDS011;11783;50.350;6.576;2023-03-23T09:24:10;3.13;;;1.30;;
23228;SDS011;11783;50.350;6.576;2023-03-23T09:26:35;5.15;;;1.30;;
23228;SDS011;11783;50.350;6.576;2023-03-23T09:29:01;2.80;;;1.10;;
23228;SDS011;11783;50.350;6.576;2023-03-23T09:31:27;3.25;;;1.15;;
23228;SDS011;11783;50.350;6.576;2023-03-23T09:33:53;2.35;;;1.08;;
23228;SDS011;11783;50.350;6.576;2023-03-23T09:36:21;2.72;;;0.90;;
23228;SDS011;11783;50.350;6.576;2023-03-23T09:38:48;3.45;;;1.00;;
23228;SDS011;11783;50.350;6.576;2023-03-23T09:49:23;3.33;;;1.23;;
23228;SDS011;11783;50.350;6.576;2023-03-23T09:52:13;3.88;;;1.05;;
23228;SDS011;11783;50.350;6.576;2023-03-23T09:54:41;4.22;;;1.10;;
23228;SDS011;11783;50.350;6.576;2023-03-23T09:57:53;1.85;;;0.80;;
23228;SDS011;11783;50.350;6.576;2023-03-23T10:00:08;2.58;;;1.00;;
23228;SDS011;11783;50.350;6.576;2023-03-23T10:02:40;2.78;;;1.17;;
23228;SDS011;11783;50.350;6.576;2023-03-23T10:05:34;2.42;;;0.93;;
23228;SDS011;11783;50.350;6.576;2023-03-23T10:08:16;3.75;;;1.10;;
23228;SDS011;11783;50.350;6.576;2023-03-23T10:13:47;4.20;;;1.08;;
23228;SDS011;11783;50.350;6.576;2023-03-23T10:16:33;5.80;;;1.27;;
23228;SDS011;11783;50.350;6.576;2023-03-23T10:21:37;3.03;;;1.25;;
23228;SDS011;11783;50.350;6.576;2023-03-23T10:24:09;2.38;;;0.85;;
23228;SDS011;11783;50.350;6.576;2023-03-23T10:29:30;2.47;;;1.15;;
23228;SDS011;11783;50.350;6.576;2023-03-23T10:34:48;3.78;;;1.20;;
23228;SDS011;11783;50.350;6.576;2023-03-23T10:37:24;2.88;;;1.20;;
23228;SDS011;11783;50.350;6.576;2023-03-23T10:39:53;4.95;;;1.40;;
23228;SDS011;11783;50.350;6.576;2023-03-23T10:42:21;3.53;;;1.20;;
23228;SDS011;11783;50.350;6.576;2023-03-23T10:44:55;3.78;;;1.27;;
23228;SDS011;11783;50.350;6.576;2023-03-23T10:47:23;3.38;;;1.38;;
23228;SDS011;11783;50.350;6.576;2023-03-23T10:49:50;4.47;;;0.90;;
23228;SDS011;11783;50.350;6.576;2023-03-23T10:52:33;3.30;;;1.25;;
23228;SDS011;11783;50.350;6.576;2023-03-23T10:55:05;4.25;;;1.20;;
23228;SDS011;11783;50.350;6.576;2023-03-23T10:57:32;3.55;;;1.27;;
23228;SDS011;11783;50.350;6.576;2023-03-23T11:00:06;3.53;;;1.20;;
23228;SDS011;11783;50.350;6.576;2023-03-23T11:02:42;2.30;;;1.00;;
23228;SDS011;11783;50.350;6.576;2023-03-23T11:07:47;4.25;;;1.10;;
23228;SDS011;11783;50.350;6.576;2023-03-23T11:10:20;3.30;;;1.13;;
23228;SDS011;11783;50.350;6.576;2023-03-23T11:13:10;2.80;;;0.95;;
23228;SDS011;11783;50.350;6.576;2023-03-23T11:15:39;3.85;;;1.08;;
23228;SDS011;11783;50.350;6.576;2023-03-23T11:18:09;4.35;;;1.27;;
23228;SDS011;11783;50.350;6.576;2023-03-23T11:20:46;5.13;;;1.30;;
23228;SDS011;11783;50.350;6.576;2023-03-23T11:23:19;5.00;;;1.20;;
23228;SDS011;11783;50.350;6.576;2023-03-23T11:25:53;4.10;;;1.10;;
23228;SDS011;11783;50.350;6.576;2023-03-23T11:28:29;2.58;;;1.02;;
23228;SDS011;11783;50.350;6.576;2023-03-23T11:30:58;4.63;;;1.30;;
23228;SDS011;11783;50.350;6.576;2023-03-23T11:33:30;4.38;;;1.55;;
23228;SDS011;11783;50.350;6.576;2023-03-23T11:36:01;4.80;;;1.17;;
23228;SDS011;11783;50.350;6.576;2023-03-23T11:38:27;4.25;;;1.30;;
23228;SDS011;11783;50.350;6.576;2023-03-23T11:40:53;5.57;;;1.20;;
23228;SDS011;11783;50.350;6.576;2023-03-23T11:43:23;4.32;;;1.35;;
23228;SDS011;11783;50.350;6.576;2023-03-23T11:45:58;3.67;;;1.30;;
23228;SDS011;11783;50.350;6.576;2023-03-23T11:51:41;3.88;;;1.27;;
23228;SDS011;11783;50.350;6.576;2023-03-23T11:54:20;4.22;;;1.48;;
23228;SDS011;11783;50.350;6.576;2023-03-23T11:56:55;6.47;;;1.20;;
23228;SDS011;11783;50.350;6.576;2023-03-23T11:59:29;3.78;;;1.40;;
23228;SDS011;11783;50.350;6.576;2023-03-23T12:21:26;6.88;;;1.33;;
23228;SDS011;11783;50.350;6.576;2023-03-23T12:27:26;4.80;;;1.02;;
23228;SDS011;11783;50.350;6.576;2023-03-23T12:42:55;6.13;;;1.80;;
23228;SDS011;11783;50.350;6.576;2023-03-23T12:48:17;10.05;;;1.42;;
23228;SDS011;11783;50.350;6.576;2023-03-23T12:53:50;6.85;;;1.40;;
23228;SDS011;11783;50.350;6.576;2023-03-23T12:56:33;5.07;;;1.40;;
23228;SDS011;11783;50.350;6.576;2023-03-23T12:59:10;6.13;;;1.40;;
23228;SDS011;11783;50.350;6.576;2023-03-23T13:01:48;5.45;;;1.25;;
23228;SDS011;11783;50.350;6.576;2023-03-23T13:04:19;4.43;;;1.35;;
23228;SDS011;11783;50.350;6.576;2023-03-23T13:06:48;5.15;;;1.30;;
23228;SDS011;11783;50.350;6.576;2023-03-23T13:09:17;1.95;;;1.10;;
23228;SDS011;11783;50.350;6.576;2023-03-23T13:11:49;5.55;;;1.27;;
23228;SDS011;11783;50.350;6.576;2023-03-23T13:22:27;5.03;;;1.33;;
23228;SDS011;11783;50.350;6.576;2023-03-23T13:25:03;6.45;;;1.02;;
23228;SDS011;11783;50.350;6.576;2023-03-23T13:27:33;3.30;;;0.93;;
23228;SDS011;11783;50.350;6.576;2023-03-23T13:30:00;4.38;;;1.35;;
23228;SDS011;11783;50.350;6.576;2023-03-23T13:35:04;5.80;;;1.33;;
23228;SDS011;11783;50.350;6.576;2023-03-23T13:37:40;7.85;;;1.70;;
23228;SDS011;11783;50.350;6.576;2023-03-23T13:40:15;6.28;;;1.52;;
23228;SDS011;11783;50.350;6.576;2023-03-23T13:42:51;3.58;;;0.90;;
23228;SDS011;11783;50.350;6.576;2023-03-23T13:47:46;8.45;;;1.73;;
23228;SDS011;11783;50.350;6.576;2023-03-23T13:53:43;5.07;;;1.70;;
23228;SDS011;11783;50.350;6.576;2023-03-23T13:55:47;5.25;;;1.10;;
23228;SDS011;11783;50.350;6.576;2023-03-23T13:58:22;7.80;;;1.40;;
23228;SDS011;11783;50.350;6.576;2023-03-23T14:00:50;8.32;;;1.65;;
23228;SDS011;11783;50.350;6.576;2023-03-23T14:06:05;3.25;;;1.98;;
23228;SDS011;11783;50.350;6.576;2023-03-23T14:08:40;6.30;;;1.13;;
23228;SDS011;11783;50.350;6.576;2023-03-23T14:11:15;4.30;;;1.30;;
23228;SDS011;11783;50.350;6.576;2023-03-23T14:13:45;4.47;;;1.23;;
23228;SDS011;11783;50.350;6.576;2023-03-23T14:18:57;3.80;;;1.33;;
23228;SDS011;11783;50.350;6.576;2023-03-23T14:21:37;4.25;;;1.30;;
23228;SDS011;11783;50.350;6.576;2023-03-23T14:24:50;6.85;;;1.60;;
23228;SDS011;11783;50.350;6.576;2023-03-23T14:27:02;6.55;;;1.90;;
23228;SDS011;11783;50.350;6.576;2023-03-23T14:29:30;4.97;;;1.38;;
23228;SDS011;11783;50.350;6.576;2023-03-23T14:31:56;6.78;;;1.65;;
23228;SDS011;11783;50.350;6.576;2023-03-23T14:34:25;4.20;;;1.60;;
23228;SDS011;11783;50.350;6.576;2023-03-23T14:36:55;3.53;;;1.17;;
23228;SDS011;11783;50.350;6.576;2023-03-23T14:39:23;6.95;;;1.60;;
23228;SDS011;11783;50.350;6.576;2023-03-23T14:41:51;6.97;;;1.40;;
23228;SDS011;11783;50.350;6.576;2023-03-23T14:44:25;6.50;;;1.60;;
23228;SDS011;11783;50.350;6.576;2023-03-23T14:46:54;4.82;;;1.30;;
23228;SDS011;11783;50.350;6.576;2023-03-23T14:49:28;5.38;;;1.67;;
23228;SDS011;11783;50.350;6.576;2023-03-23T14:51:56;5.25;;;1.30;;
23228;SDS011;11783;50.350;6.576;2023-03-23T14:54:38;6.20;;;1.30;;
23228;SDS011;11783;50.350;6.576;2023-03-23T14:57:17;5.18;;;1.50;;
23228;SDS011;11783;50.350;6.576;2023-03-23T14:59:44;5.30;;;1.20;;
23228;SDS011;11783;50.350;6.576;2023-03-23T15:02:35;7.25;;;1.33;;
23228;SDS011;11783;50.350;6.576;2023-03-23T15:05:43;5.35;;;1.55;;
23228;SDS011;11783;50.350;6.576;2023-03-23T15:07:55;6.30;;;1.60;;
23228;SDS011;11783;50.350;6.576;2023-03-23T15:10:25;6.00;;;1.50;;
23228;SDS011;11783;50.350;6.576;2023-03-23T15:12:50;7.18;;;1.50;;
23228;SDS011;11783;50.350;6.576;2023-03-23T15:15:26;8.15;;;1.60;;
23228;SDS011;11783;50.350;6.576;2023-03-23T15:17:54;6.40;;;1.65;;
23228;SDS011;11783;50.350;6.576;2023-03-23T15:23:13;6.80;;;1.35;;
23228;SDS011;11783;50.350;6.576;2023-03-23T15:25:46;5.40;;;1.45;;
23228;SDS011;11783;50.350;6.576;2023-03-23T15:28:17;5.85;;;1.50;;
23228;SDS011;11783;50.350;6.576;2023-03-23T15:30:48;7.07;;;1.48;;
23228;SDS011;11783;50.350;6.576;2023-03-23T15:33:19;6.40;;;1.40;;
23228;SDS011;11783;50.350;6.576;2023-03-23T15:35:51;7.53;;;1.20;;
23228;SDS011;11783;50.350;6.576;2023-03-23T15:38:21;3.70;;;1.27;;
23228;SDS011;11783;50.350;6.576;2023-03-23T15:40:52;4.70;;;1.63;;
23228;SDS011;11783;50.350;6.576;2023-03-23T15:43:26;5.82;;;1.50;;
23228;SDS011;11783;50.350;6.576;2023-03-23T15:48:53;6.88;;;1.40;;
23228;SDS011;11783;50.350;6.576;2023-03-23T15:51:19;4.85;;;1.52;;
23228;SDS011;11783;50.350;6.576;2023-03-23T15:53:48;6.85;;;1.40;;
23228;SDS011;11783;50.350;6.576;2023-03-23T15:56:15;8.77;;;2.08;;
23228;SDS011;11783;50.350;6.576;2023-03-23T15:58:42;5.63;;;1.63;;
23228;SDS011;11783;50.350;6.576;2023-03-23T16:01:13;4.32;;;1.20;;
23228;SDS011;11783;50.350;6.576;2023-03-23T16:03:51;6.40;;;1.55;;
23228;SDS011;11783;50.350;6.576;2023-03-23T16:06:23;4.78;;;1.75;;
23228;SDS011;11783;50.350;6.576;2023-03-23T16:08:51;5.97;;;1.58;;
23228;SDS011;11783;50.350;6.576;2023-03-23T16:11:17;5.65;;;1.30;;
23228;SDS011;11783;50.350;6.576;2023-03-23T16:13:43;7.15;;;1.58;;
23228;SDS011;11783;50.350;6.576;2023-03-23T16:16:31;5.10;;;1.25;;
23228;SDS011;11783;50.350;6.576;2023-03-23T16:18:58;6.40;;;1.58;;
23228;SDS011;11783;50.350;6.576;2023-03-23T16:21:24;4.88;;;1.38;;
23228;SDS011;11783;50.350;6.576;2023-03-23T16:23:51;4.60;;;1.40;;
23228;SDS011;11783;50.350;6.576;2023-03-23T16:26:17;7.78;;;1.63;;
23228;SDS011;11783;50.350;6.576;2023-03-23T16:28:44;3.53;;;1.40;;
23228;SDS011;11783;50.350;6.576;2023-03-23T16:31:09;6.47;;;1.48;;
23228;SDS011;11783;50.350;6.576;2023-03-23T16:33:35;5.80;;;1.50;;
23228;SDS011;11783;50.350;6.576;2023-03-23T16:36:02;5.72;;;1.58;;
23228;SDS011;11783;50.350;6.576;2023-03-23T16:38:28;4.70;;;1.42;;
23228;SDS011;11783;50.350;6.576;2023-03-23T16:40:53;5.55;;;1.50;;
23228;SDS011;11783;50.350;6.576;2023-03-23T16:43:19;4.82;;;1.27;;
23228;SDS011;11783;50.350;6.576;2023-03-23T16:45:45;4.82;;;1.48;;
23228;SDS011;11783;50.350;6.576;2023-03-23T16:48:12;5.03;;;1.48;;
23228;SDS011;11783;50.350;6.576;2023-03-23T16:50:40;7.32;;;1.48;;
23228;SDS011;11783;50.350;6.576;2023-03-23T16:53:07;6.63;;;1.85;;
23228;SDS011;11783;50.350;6.576;2023-03-23T16:55:36;5.10;;;1.38;;
23228;SDS011;11783;50.350;6.576;2023-03-23T16:58:03;12.25;;;1.80;;
23228;SDS011;11783;50.350;6.576;2023-03-23T17:00:29;6.60;;;1.55;;